createdAt,value
2022-10-26T00:01:10.436Z,3.60
2022-10-26T00:03:39.214Z,3.10
2022-10-26T00:06:12.555Z,3.35
2022-10-26T00:08:40.287Z,3.00
2022-10-26T00:11:08.509Z,3.63
2022-10-26T00:16:16.381Z,3.08
2022-10-26T00:18:44.797Z,3.28
2022-10-26T00:21:12.704Z,3.10
2022-10-26T00:23:40.928Z,3.00
2022-10-26T00:28:36.410Z,3.25
2022-10-26T00:31:09.326Z,2.85
2022-10-26T00:33:36.831Z,3.25
2022-10-26T00:36:04.720Z,3.17
2022-10-26T00:38:32.178Z,3.15
2022-10-26T00:40:59.704Z,3.00
2022-10-26T00:43:27.232Z,3.22
2022-10-26T00:45:57.213Z,2.90
2022-10-26T00:48:31.535Z,2.80
2022-10-26T00:51:02.854Z,3.30
2022-10-26T00:53:31.747Z,2.92
2022-10-26T00:55:59.775Z,3.42
2022-10-26T00:58:27.604Z,3.10
2022-10-26T01:00:55.578Z,3.40
2022-10-26T01:03:25.311Z,3.35
2022-10-26T01:05:56.403Z,3.03
2022-10-26T01:08:25.344Z,2.72
2022-10-26T01:10:52.891Z,2.72
2022-10-26T01:13:21.120Z,3.05
2022-10-26T01:18:43.108Z,2.95
2022-10-26T01:21:22.088Z,2.88
2022-10-26T01:24:08.281Z,2.80
2022-10-26T01:27:02.049Z,2.95
2022-10-26T01:29:55.918Z,2.80
2022-10-26T01:32:36.004Z,3.10
2022-10-26T01:35:16.262Z,3.10
2022-10-26T01:37:54.934Z,2.90
2022-10-26T01:40:36.419Z,2.67
2022-10-26T01:43:08.191Z,2.95
2022-10-26T01:45:40.063Z,3.25
2022-10-26T01:48:12.671Z,2.75
2022-10-26T01:50:41.993Z,3.00
2022-10-26T01:53:13.584Z,3.70
2022-10-26T01:55:49.051Z,3.00
2022-10-26T01:58:38.204Z,3.17
2022-10-26T02:01:33.212Z,2.97
2022-10-26T02:04:15.718Z,3.28
2022-10-26T02:07:04.380Z,3.13
2022-10-26T02:09:43.708Z,3.20
2022-10-26T02:12:26.943Z,3.33
2022-10-26T02:15:05.253Z,2.88
2022-10-26T02:18:00.202Z,3.47
2022-10-26T02:20:34.006Z,3.70
2022-10-26T02:23:05.423Z,3.20
2022-10-26T02:25:36.887Z,3.40
2022-10-26T02:28:12.357Z,3.35
2022-10-26T02:30:42.717Z,3.45
2022-10-26T02:33:12.174Z,3.63
2022-10-26T02:35:41.840Z,3.00
2022-10-26T02:38:12.121Z,3.60
2022-10-26T02:40:40.348Z,3.20
2022-10-26T02:45:50.234Z,3.65
2022-10-26T02:48:18.692Z,3.30
2022-10-26T02:51:04.774Z,4.10
2022-10-26T02:53:48.208Z,4.00
2022-10-26T02:56:22.556Z,3.92
2022-10-26T02:58:55.739Z,3.80
2022-10-26T03:01:23.418Z,3.40
2022-10-26T03:03:50.970Z,4.35
2022-10-26T03:06:23.232Z,4.28
2022-10-26T03:08:50.880Z,4.07
2022-10-26T03:11:18.590Z,3.60
2022-10-26T03:13:46.119Z,4.30
2022-10-26T03:16:13.527Z,4.35
2022-10-26T03:18:40.959Z,4.13
2022-10-26T03:21:08.697Z,4.55
2022-10-26T03:23:36.253Z,3.88
2022-10-26T03:26:03.776Z,3.83
2022-10-26T03:30:59.192Z,4.30
2022-10-26T03:33:27.301Z,4.13
2022-10-26T03:35:56.762Z,4.25
2022-10-26T03:38:24.600Z,4.07
2022-10-26T03:40:52.289Z,4.40
2022-10-26T03:43:19.814Z,5.10
2022-10-26T03:45:47.260Z,4.22
2022-10-26T03:48:14.794Z,4.95
2022-10-26T03:50:42.241Z,4.57
2022-10-26T03:53:09.890Z,5.00
2022-10-26T03:55:37.406Z,4.45
2022-10-26T03:58:04.958Z,5.00
2022-10-26T04:00:32.365Z,5.07
2022-10-26T04:03:00.405Z,4.70
2022-10-26T04:07:58.554Z,4.65
2022-10-26T04:10:27.387Z,4.32
2022-10-26T04:12:55.483Z,4.38
2022-10-26T04:15:23.500Z,4.55
2022-10-26T04:17:59.036Z,4.15
2022-10-26T04:20:27.708Z,3.67
2022-10-26T04:23:03.236Z,3.97
2022-10-26T04:25:33.264Z,4.05
2022-10-26T04:28:02.710Z,3.88
2022-10-26T04:30:31.109Z,4.43
2022-10-26T04:32:58.574Z,4.15
2022-10-26T04:35:26.931Z,3.83
2022-10-26T04:38:01.123Z,4.07
2022-10-26T04:40:29.660Z,3.85
2022-10-26T04:42:57.234Z,3.50
2022-10-26T04:45:24.827Z,3.80
2022-10-26T04:48:01.756Z,3.70
2022-10-26T04:50:29.283Z,3.80
2022-10-26T04:52:56.863Z,3.80
2022-10-26T04:55:24.250Z,3.55
2022-10-26T04:57:54.775Z,4.10
2022-10-26T05:00:24.587Z,4.03
2022-10-26T05:02:52.068Z,3.65
2022-10-26T05:05:19.495Z,3.47
2022-10-26T05:07:55.788Z,4.00
2022-10-26T05:10:24.155Z,3.65
2022-10-26T05:12:56.345Z,3.60
2022-10-26T05:15:23.765Z,3.65
2022-10-26T05:18:05.602Z,3.95
2022-10-26T05:20:34.750Z,3.50
2022-10-26T05:23:04.621Z,3.47
2022-10-26T05:25:34.564Z,4.00
2022-10-26T05:28:04.239Z,3.58
2022-10-26T05:30:32.249Z,3.97
2022-10-26T05:33:02.137Z,3.67
2022-10-26T05:35:30.437Z,3.88
2022-10-26T05:37:58.535Z,3.47
2022-10-26T05:40:26.213Z,3.70
2022-10-26T05:42:59.223Z,3.60
2022-10-26T05:45:26.651Z,3.28
2022-10-26T05:47:57.410Z,3.80
2022-10-26T05:50:27.550Z,3.38
2022-10-26T05:52:55.814Z,3.07
2022-10-26T05:57:51.558Z,3.05
2022-10-26T06:00:24.564Z,3.63
2022-10-26T06:03:22.449Z,2.85
2022-10-26T06:08:23.078Z,3.20
2022-10-26T06:10:51.135Z,2.80
2022-10-26T06:13:18.855Z,3.35
2022-10-26T06:16:08.097Z,2.92
2022-10-26T06:19:02.135Z,3.22
2022-10-26T06:21:49.980Z,3.17
2022-10-26T06:24:39.002Z,3.10
2022-10-26T06:27:15.689Z,3.15
2022-10-26T06:30:02.209Z,2.47
2022-10-26T06:32:30.382Z,3.25
2022-10-26T06:37:46.467Z,2.78
2022-10-26T06:40:15.977Z,3.20
2022-10-26T06:42:44.168Z,3.00
2022-10-26T06:48:10.845Z,2.88
2022-10-26T06:50:46.127Z,2.83
2022-10-26T06:53:17.119Z,3.05
2022-10-26T06:55:46.700Z,3.17
2022-10-26T06:58:29.151Z,2.97
2022-10-26T07:00:56.998Z,2.85
2022-10-26T07:03:24.541Z,2.60
2022-10-26T07:05:52.216Z,3.15
2022-10-26T07:08:19.705Z,3.30
2022-10-26T07:10:47.322Z,3.03
2022-10-26T07:13:14.990Z,3.47
2022-10-26T07:15:43.407Z,3.05
2022-10-26T07:18:10.986Z,3.50
2022-10-26T07:20:40.792Z,2.80
2022-10-26T07:23:12.708Z,3.60
2022-10-26T07:25:40.638Z,2.92
2022-10-26T07:30:39.380Z,2.90
2022-10-26T07:33:12.672Z,3.35
2022-10-26T07:35:40.100Z,3.25
2022-10-26T07:38:08.188Z,3.08
2022-10-26T07:40:36.922Z,2.92
2022-10-26T07:43:04.908Z,2.95
2022-10-26T07:45:32.450Z,3.03
2022-10-26T07:47:59.833Z,3.30
2022-10-26T07:50:27.333Z,3.30
2022-10-26T07:52:55.046Z,3.13
2022-10-26T07:55:22.547Z,2.92
2022-10-26T07:57:54.465Z,3.60
2022-10-26T08:00:22.522Z,2.78
2022-10-26T08:02:50.169Z,3.03
2022-10-26T08:05:18.056Z,3.35
2022-10-26T08:07:46.585Z,3.13
2022-10-26T08:10:15.170Z,3.03
2022-10-26T08:12:43.829Z,2.88
2022-10-26T08:15:12.842Z,3.38
2022-10-26T08:17:40.237Z,3.38
2022-10-26T08:20:08.130Z,3.40
2022-10-26T08:22:35.969Z,2.83
2022-10-26T08:25:03.513Z,3.28
2022-10-26T08:27:30.927Z,3.05
2022-10-26T08:29:58.452Z,3.55
2022-10-26T08:32:26.039Z,3.50
2022-10-26T08:34:53.492Z,3.65
2022-10-26T08:37:21.015Z,3.15
2022-10-26T08:39:50.615Z,3.28
2022-10-26T08:42:28.658Z,3.60
2022-10-26T08:45:27.581Z,3.17
2022-10-26T08:48:01.660Z,3.63
2022-10-26T08:50:45.691Z,3.60
2022-10-26T08:53:31.364Z,3.55
2022-10-26T08:56:12.382Z,3.42
2022-10-26T08:58:51.464Z,3.63
2022-10-26T09:01:19.501Z,3.80
2022-10-26T09:03:46.994Z,3.63
2022-10-26T09:06:43.916Z,3.15
2022-10-26T09:09:36.583Z,3.45
2022-10-26T09:12:31.215Z,3.90
2022-10-26T09:15:14.110Z,3.72
2022-10-26T09:17:55.951Z,3.35
2022-10-26T09:20:48.470Z,3.35
2022-10-26T09:23:55.501Z,3.08
2022-10-26T09:26:56.014Z,2.88
2022-10-26T09:29:34.606Z,2.65
2022-10-26T09:32:03.870Z,3.20
2022-10-26T09:34:46.464Z,3.55
2022-10-26T09:37:25.521Z,3.80
2022-10-26T09:39:56.009Z,3.22
2022-10-26T09:42:37.525Z,3.47
2022-10-26T09:45:31.575Z,3.05
2022-10-26T09:48:07.471Z,3.55
2022-10-26T09:50:38.556Z,3.13
2022-10-26T09:53:06.039Z,3.42
2022-10-26T09:55:39.269Z,3.33
2022-10-26T09:58:14.576Z,3.72
2022-10-26T10:00:42.916Z,3.50
2022-10-26T10:03:31.574Z,4.00
2022-10-26T10:06:19.819Z,3.25
2022-10-26T10:09:06.701Z,3.33
2022-10-26T10:11:41.005Z,3.70
2022-10-26T10:14:14.888Z,4.05
2022-10-26T10:16:51.343Z,3.33
2022-10-26T10:19:38.693Z,3.25
2022-10-26T10:22:18.700Z,3.38
2022-10-26T10:24:58.299Z,3.47
2022-10-26T10:27:27.000Z,4.30
2022-10-26T10:30:03.225Z,3.97
2022-10-26T10:32:35.715Z,3.67
2022-10-26T10:35:24.090Z,3.88
2022-10-26T10:37:52.387Z,3.53
2022-10-26T10:40:21.309Z,3.47
2022-10-26T10:42:50.647Z,3.30
2022-10-26T10:45:30.218Z,3.20
2022-10-26T10:48:15.112Z,3.85
2022-10-26T10:50:58.550Z,3.20
2022-10-26T10:53:54.125Z,3.30
2022-10-26T10:56:30.484Z,3.38
2022-10-26T10:59:16.795Z,3.28
2022-10-26T11:02:26.395Z,3.20
2022-10-26T11:05:31.405Z,3.22
2022-10-26T11:08:20.455Z,2.88
2022-10-26T11:11:13.690Z,3.60
2022-10-26T11:14:18.983Z,3.28
2022-10-26T11:17:02.914Z,3.28
2022-10-26T11:19:51.874Z,3.25
2022-10-26T11:22:24.456Z,3.13
2022-10-26T11:25:16.503Z,3.28
2022-10-26T11:27:56.011Z,3.20
2022-10-26T11:30:30.581Z,3.40
2022-10-26T11:33:27.092Z,3.35
2022-10-26T11:36:08.872Z,3.10
2022-10-26T11:39:16.273Z,3.10
2022-10-26T11:42:03.447Z,3.17
2022-10-26T11:44:41.291Z,3.55
2022-10-26T11:47:11.415Z,3.10
2022-10-26T11:49:51.757Z,3.10
2022-10-26T11:52:24.921Z,3.22
2022-10-26T11:54:56.929Z,3.38
2022-10-26T11:57:28.031Z,3.15
2022-10-26T12:00:12.680Z,3.60
2022-10-26T12:02:47.013Z,3.53
2022-10-26T12:05:27.913Z,3.13
2022-10-26T12:07:59.092Z,3.63
2022-10-26T12:10:35.201Z,3.20
2022-10-26T12:13:05.698Z,2.92
2022-10-26T12:19:01.034Z,3.15
2022-10-26T12:21:30.357Z,3.17
2022-10-26T12:24:22.766Z,3.13
2022-10-26T12:26:54.685Z,3.10
2022-10-26T12:29:37.440Z,3.10
2022-10-26T12:32:25.835Z,3.45
2022-10-26T12:34:54.868Z,3.30
2022-10-26T12:37:38.203Z,3.63
2022-10-26T12:40:30.792Z,3.63
2022-10-26T12:43:18.493Z,3.10
2022-10-26T12:46:06.190Z,3.72
2022-10-26T12:48:43.795Z,3.28
2022-10-26T12:53:57.462Z,3.25
2022-10-26T12:56:38.864Z,3.47
2022-10-26T12:59:18.945Z,3.25
2022-10-26T13:02:04.040Z,3.80
2022-10-26T13:05:06.008Z,3.90
2022-10-26T13:07:38.861Z,3.78
2022-10-26T13:10:12.297Z,3.83
2022-10-26T13:12:42.843Z,4.15
2022-10-26T13:15:21.639Z,3.95
2022-10-26T13:18:10.727Z,4.32
2022-10-26T13:21:12.875Z,3.75
2022-10-26T13:23:43.451Z,4.00
2022-10-26T13:26:16.021Z,3.78
2022-10-26T13:28:45.162Z,3.53
2022-10-26T13:31:34.349Z,3.65
2022-10-26T13:34:16.857Z,3.67
2022-10-26T13:36:50.303Z,3.65
2022-10-26T13:39:22.316Z,4.22
2022-10-26T13:41:52.694Z,3.85
2022-10-26T13:44:37.644Z,4.05
2022-10-26T13:47:45.969Z,3.63
2022-10-26T13:50:20.274Z,4.05
2022-10-26T13:52:55.339Z,3.88
2022-10-26T13:55:50.469Z,3.53
2022-10-26T13:58:23.739Z,4.05
2022-10-26T14:01:10.365Z,3.88
2022-10-26T14:03:38.556Z,3.63
2022-10-26T14:06:19.474Z,3.80
2022-10-26T14:08:50.026Z,3.55
2022-10-26T14:11:22.098Z,3.60
2022-10-26T14:13:51.168Z,3.88
2022-10-26T14:16:20.399Z,3.60
2022-10-26T14:18:49.492Z,3.80
2022-10-26T14:21:20.345Z,4.40
2022-10-26T14:23:59.423Z,4.15
2022-10-26T14:26:38.321Z,3.78
2022-10-26T14:29:16.383Z,3.70
2022-10-26T14:34:12.702Z,3.67
2022-10-26T14:37:02.357Z,3.58
2022-10-26T14:39:32.851Z,3.65
2022-10-26T14:42:13.684Z,3.63
2022-10-26T14:44:41.273Z,3.50
2022-10-26T14:47:26.021Z,4.00
2022-10-26T14:49:53.874Z,4.07
2022-10-26T14:52:34.110Z,3.85
2022-10-26T14:55:10.491Z,3.55
2022-10-26T14:57:39.837Z,3.80
2022-10-26T15:00:36.958Z,3.80
2022-10-26T15:03:09.510Z,3.47
2022-10-26T15:05:37.016Z,3.75
2022-10-26T15:08:04.543Z,4.07
2022-10-26T15:10:37.727Z,3.55
2022-10-26T15:13:31.059Z,3.90
2022-10-26T15:16:10.210Z,3.45
2022-10-26T15:18:38.822Z,3.97
2022-10-26T15:21:23.584Z,3.88
2022-10-26T15:23:52.375Z,4.28
2022-10-26T15:26:20.434Z,3.72
2022-10-26T15:28:49.653Z,3.92
2022-10-26T15:31:17.075Z,4.15
2022-10-26T15:34:04.579Z,3.63
2022-10-26T15:36:35.597Z,4.20
2022-10-26T15:39:03.166Z,3.67
2022-10-26T15:41:37.775Z,4.00
2022-10-26T15:44:15.997Z,4.45
2022-10-26T15:46:43.769Z,3.65
2022-10-26T15:49:17.237Z,4.35
2022-10-26T15:51:46.779Z,4.40
2022-10-26T15:54:14.453Z,4.32
2022-10-26T15:56:43.800Z,4.32
2022-10-26T15:59:17.982Z,3.70
2022-10-26T16:01:45.824Z,4.07
2022-10-26T16:04:13.958Z,4.25
2022-10-26T16:06:42.155Z,4.03
2022-10-26T16:11:46.628Z,3.47
2022-10-26T16:14:14.130Z,3.83
2022-10-26T16:16:41.546Z,4.70
2022-10-26T16:19:29.827Z,4.05
2022-10-26T16:21:58.884Z,4.70
2022-10-26T16:24:28.088Z,4.53
2022-10-26T16:26:56.708Z,4.00
2022-10-26T16:29:24.214Z,4.20
2022-10-26T16:31:51.622Z,3.80
2022-10-26T16:34:19.170Z,4.18
2022-10-26T16:36:46.644Z,3.42
2022-10-26T16:39:14.199Z,3.95
2022-10-26T16:41:41.621Z,4.05
2022-10-26T16:44:13.568Z,3.97
2022-10-26T16:46:41.012Z,4.38
2022-10-26T16:49:08.614Z,4.18
2022-10-26T16:51:36.101Z,4.20
2022-10-26T16:54:03.824Z,3.70
2022-10-26T16:56:31.371Z,3.75
2022-10-26T16:58:58.839Z,4.05
2022-10-26T17:01:26.602Z,4.25
2022-10-26T17:03:55.264Z,4.30
2022-10-26T17:06:22.943Z,4.13
2022-10-26T17:08:50.342Z,3.80
2022-10-26T17:11:20.381Z,3.92
2022-10-26T17:13:52.755Z,4.63
2022-10-26T17:16:22.608Z,3.92
2022-10-26T17:18:50.839Z,4.47
2022-10-26T17:21:20.904Z,4.22
2022-10-26T17:23:48.643Z,4.10
2022-10-26T17:26:18.332Z,4.28
2022-10-26T17:28:46.159Z,4.40
2022-10-26T17:31:15.220Z,3.85
2022-10-26T17:33:44.986Z,4.45
2022-10-26T17:36:13.851Z,3.97
2022-10-26T17:38:42.371Z,4.18
2022-10-26T17:41:14.525Z,4.10
2022-10-26T17:43:43.480Z,4.22
2022-10-26T17:46:16.380Z,4.30
2022-10-26T17:48:44.096Z,4.13
2022-10-26T17:51:14.485Z,4.53
2022-10-26T17:53:42.764Z,4.65
2022-10-26T17:58:39.435Z,4.35
2022-10-26T18:01:09.870Z,4.47
2022-10-26T18:03:39.244Z,4.47
2022-10-26T18:06:07.682Z,4.70
2022-10-26T18:08:37.351Z,5.57
2022-10-26T18:11:06.503Z,4.70
2022-10-26T18:13:34.469Z,4.80
2022-10-26T18:16:11.659Z,5.10
2022-10-26T18:18:41.222Z,4.85
2022-10-26T18:21:11.515Z,5.28
2022-10-26T18:23:39.221Z,4.95
2022-10-26T18:26:17.998Z,6.20
2022-10-26T18:28:46.228Z,6.03
2022-10-26T18:31:19.665Z,5.70
2022-10-26T18:33:47.287Z,5.85
2022-10-26T18:36:18.979Z,6.30
2022-10-26T18:38:47.359Z,6.13
2022-10-26T18:41:16.685Z,5.10
2022-10-26T18:43:49.398Z,5.45
2022-10-26T18:46:20.727Z,5.10
2022-10-26T18:48:49.946Z,5.78
2022-10-26T18:53:46.891Z,5.47
2022-10-26T18:56:24.935Z,6.72
2022-10-26T19:01:23.520Z,8.10
2022-10-26T19:03:57.030Z,8.05
2022-10-26T19:06:30.490Z,7.68
2022-10-26T19:08:58.583Z,7.45
2022-10-26T19:11:28.099Z,7.95
2022-10-26T19:13:55.781Z,8.52
2022-10-26T19:19:14.267Z,7.72
2022-10-26T19:21:41.827Z,7.18
2022-10-26T19:24:20.361Z,8.00
2022-10-26T19:26:50.252Z,7.25
2022-10-26T19:29:19.185Z,7.90
2022-10-26T19:31:50.115Z,7.90
2022-10-26T19:34:18.290Z,7.00
2022-10-26T19:36:46.984Z,7.93
2022-10-26T19:39:16.617Z,8.90
2022-10-26T19:41:45.471Z,7.22
2022-10-26T19:44:14.527Z,6.53
2022-10-26T19:46:43.618Z,7.10
2022-10-26T19:49:13.117Z,7.05
2022-10-26T19:51:45.740Z,8.30
2022-10-26T19:54:13.278Z,7.53
2022-10-26T19:56:40.828Z,7.10
2022-10-26T19:59:10.484Z,6.63
2022-10-26T20:01:38.994Z,6.55
2022-10-26T20:04:06.931Z,7.53
2022-10-26T20:06:34.583Z,6.80
2022-10-26T20:09:02.816Z,6.68
2022-10-26T20:14:05.041Z,6.15
2022-10-26T20:16:33.033Z,6.35
2022-10-26T20:19:01.579Z,6.75
2022-10-26T20:21:29.039Z,5.70
2022-10-26T20:23:57.647Z,6.75
2022-10-26T20:26:28.239Z,7.55
2022-10-26T20:28:56.255Z,6.93
2022-10-26T20:31:23.837Z,7.10
2022-10-26T20:33:55.008Z,6.90
2022-10-26T20:36:22.779Z,7.78
2022-10-26T20:38:50.655Z,7.70
2022-10-26T20:41:18.672Z,7.57
2022-10-26T20:46:25.567Z,6.57
2022-10-26T20:48:53.944Z,7.03
2022-10-26T20:52:08.230Z,7.93
2022-10-26T20:54:51.965Z,6.43
2022-10-26T20:57:25.696Z,6.30
2022-10-26T21:00:13.539Z,7.38
2022-10-26T21:02:41.110Z,8.70
2022-10-26T21:05:08.825Z,7.40
2022-10-26T21:07:36.396Z,8.35
2022-10-26T21:10:04.341Z,8.32
2022-10-26T21:12:31.850Z,8.07
2022-10-26T21:14:59.375Z,7.18
2022-10-26T21:17:26.881Z,7.63
2022-10-26T21:19:56.772Z,7.50
2022-10-26T21:22:24.554Z,7.57
2022-10-26T21:24:52.181Z,7.70
2022-10-26T21:27:19.759Z,8.15
2022-10-26T21:29:49.830Z,8.35
2022-10-26T21:32:17.985Z,7.35
2022-10-26T21:37:13.319Z,7.53
2022-10-26T21:39:40.880Z,7.22
2022-10-26T21:42:09.039Z,6.50
2022-10-26T21:44:41.368Z,7.45
2022-10-26T21:47:10.354Z,7.63
2022-10-26T21:49:37.983Z,9.18
2022-10-26T21:52:06.761Z,7.78
2022-10-26T21:54:34.516Z,8.18
2022-10-26T21:57:02.290Z,8.98
2022-10-26T21:59:29.973Z,8.77
2022-10-26T22:01:57.629Z,9.52
2022-10-26T22:04:25.341Z,10.57
2022-10-26T22:06:52.880Z,12.77
2022-10-26T22:09:20.456Z,14.02
2022-10-26T22:11:48.044Z,14.27
2022-10-26T22:14:15.852Z,16.40
2022-10-26T22:16:43.526Z,15.98
2022-10-26T22:19:11.085Z,14.75
2022-10-26T22:21:41.125Z,13.57
2022-10-26T22:24:09.128Z,11.98
2022-10-26T22:26:37.282Z,11.05
2022-10-26T22:29:05.055Z,12.55
2022-10-26T22:31:34.927Z,10.52
2022-10-26T22:34:07.638Z,11.60
2022-10-26T22:36:36.093Z,14.48
2022-10-26T22:39:04.387Z,12.40
2022-10-26T22:41:31.921Z,12.60
2022-10-26T22:43:59.420Z,11.82
2022-10-26T22:46:28.295Z,12.20
2022-10-26T22:49:02.099Z,12.80
2022-10-26T22:51:32.563Z,11.70
2022-10-26T22:54:01.959Z,12.60
2022-10-26T22:56:31.349Z,11.48
2022-10-26T22:58:59.471Z,10.85
2022-10-26T23:01:31.316Z,10.65
2022-10-26T23:03:59.859Z,9.57
2022-10-26T23:08:55.948Z,9.70
2022-10-26T23:11:25.077Z,9.95
2022-10-26T23:13:56.316Z,10.10
2022-10-26T23:16:23.950Z,11.10
2022-10-26T23:18:53.466Z,10.95
2022-10-26T23:21:23.038Z,9.93
2022-10-26T23:23:50.665Z,8.82
2022-10-26T23:26:21.061Z,9.85
2022-10-26T23:28:49.397Z,10.88
2022-10-26T23:31:19.490Z,10.07
2022-10-26T23:33:47.192Z,9.82
2022-10-26T23:36:14.673Z,11.07
2022-10-26T23:38:42.292Z,10.27
2022-10-26T23:41:12.804Z,10.45
2022-10-26T23:43:41.098Z,10.88
2022-10-26T23:46:09.209Z,10.65
2022-10-26T23:48:36.933Z,10.35
2022-10-26T23:51:04.497Z,9.07
2022-10-26T23:53:31.927Z,11.43
2022-10-26T23:55:59.350Z,8.93
2022-10-26T23:58:26.814Z,10.13
